Loudon, New Hampshire
Current Conditions -  °F | °C
As of 9:14 PM on Friday 24 Oct 2014 (Local Time) from KCON Reporting Station
Broken Clouds Broken Clouds  
Wind Chill: 42°   Ceiling: 12000
Heat Index: 46°   Visibility: 10mi
Dew Point: 41°   Wind: 7mph
Humidity: 83%   Direction: 300°WNW
Pressure: 29.74"   Gusts: NA
Location:  43.18°N, 71.56°W
Report Text: KCON 250114Z AUTO 30006KT 10SM SCT021 BKN120 08/05 A2974 RMK AO2 T00780050
Loading
Personal Weather Stations






























Interactive Weather Map
Tropical Storm Tracking
New forecast layout! Learn more

10-Day Weather Forecast

Advertisements
Track Severe Weather on mobile